createdAt,value
2018-12-22T00:00:12.096Z,58.46
2018-12-22T00:02:38.377Z,59.60
2018-12-22T00:05:04.774Z,59.50
2018-12-22T00:07:30.908Z,60.23
2018-12-22T00:09:57.016Z,59.64
2018-12-22T00:12:23.213Z,59.83
2018-12-22T00:14:49.385Z,59.67
2018-12-22T00:17:15.526Z,59.89
2018-12-22T00:19:41.633Z,60.15
2018-12-22T00:22:07.842Z,59.98
2018-12-22T00:24:33.939Z,60.60
2018-12-22T00:27:00.058Z,60.48
2018-12-22T00:29:26.296Z,60.86
2018-12-22T00:31:52.664Z,60.40
2018-12-22T00:34:18.841Z,60.44
2018-12-22T00:36:45.006Z,61.09
2018-12-22T00:39:11.074Z,60.32
2018-12-22T00:41:37.264Z,61.86
2018-12-22T00:44:03.511Z,62.33
2018-12-22T00:46:29.736Z,62.24
2018-12-22T00:48:55.853Z,63.02
2018-12-22T00:51:21.964Z,63.02
2018-12-22T00:53:48.196Z,64.42
2018-12-22T00:56:14.308Z,65.32
2018-12-22T00:58:40.542Z,66.72
2018-12-22T01:01:06.760Z,66.61
2018-12-22T01:03:32.944Z,66.68
2018-12-22T01:05:59.061Z,67.60
2018-12-22T01:08:25.298Z,67.71
2018-12-22T01:10:58.261Z,66.79
2018-12-22T01:13:24.358Z,66.63
2018-12-22T01:15:50.535Z,65.69
2018-12-22T01:18:16.649Z,64.79
2018-12-22T01:20:42.867Z,64.33
2018-12-22T01:23:08.974Z,64.07
2018-12-22T01:25:35.233Z,64.26
2018-12-22T01:28:01.475Z,63.09
2018-12-22T01:30:27.757Z,62.57
2018-12-22T01:32:53.851Z,63.01
2018-12-22T01:35:19.950Z,62.66
2018-12-22T01:37:46.314Z,62.82
2018-12-22T01:40:12.418Z,62.24
2018-12-22T01:42:38.732Z,61.58
2018-12-22T01:45:05.545Z,62.23
2018-12-22T01:47:31.645Z,61.66
2018-12-22T01:49:57.828Z,61.14
2018-12-22T01:52:23.932Z,61.27
2018-12-22T01:54:50.135Z,61.13
2018-12-22T01:57:16.382Z,60.37
2018-12-22T01:59:42.595Z,59.18
2018-12-22T02:02:08.877Z,58.68
2018-12-22T02:04:35.050Z,58.01
2018-12-22T02:07:01.229Z,57.22
2018-12-22T02:09:27.327Z,56.84
2018-12-22T02:11:53.429Z,55.78
2018-12-22T02:14:19.589Z,56.42
2018-12-22T02:16:46.028Z,55.77
2018-12-22T02:19:12.172Z,56.12
2018-12-22T02:21:38.333Z,55.26
2018-12-22T02:24:04.595Z,54.47
2018-12-22T02:26:30.775Z,54.52
2018-12-22T02:28:57.065Z,53.58
2018-12-22T02:31:23.453Z,53.98
2018-12-22T02:33:49.668Z,54.48
2018-12-22T02:36:15.984Z,54.01
2018-12-22T02:38:42.088Z,54.46
2018-12-22T02:41:08.297Z,53.29
2018-12-22T02:43:34.503Z,53.72
2018-12-22T02:46:01.033Z,53.38
2018-12-22T02:48:27.225Z,53.84
2018-12-22T02:50:53.291Z,53.64
2018-12-22T02:53:19.386Z,54.23
2018-12-22T02:55:45.668Z,54.33
2018-12-22T02:58:11.764Z,53.70
2018-12-22T03:00:38.071Z,54.37
2018-12-22T03:03:04.356Z,54.40
2018-12-22T03:05:30.536Z,54.08
2018-12-22T03:07:56.744Z,53.95
2018-12-22T03:10:22.958Z,54.21
2018-12-22T03:12:49.084Z,54.57
2018-12-22T03:15:15.361Z,55.24
2018-12-22T03:17:41.481Z,54.60
2018-12-22T03:20:07.725Z,54.71
2018-12-22T03:22:34.001Z,55.32
2018-12-22T03:25:00.152Z,55.47
2018-12-22T03:27:26.381Z,55.11
2018-12-22T03:29:52.726Z,54.31
2018-12-22T03:32:19.050Z,54.61
2018-12-22T03:34:45.306Z,54.95
2018-12-22T03:37:11.623Z,57.19
2018-12-22T03:39:37.940Z,59.20
2018-12-22T03:42:04.383Z,59.17
2018-12-22T03:44:30.590Z,61.77
2018-12-22T03:47:03.879Z,62.05
2018-12-22T03:49:36.874Z,62.58
2018-12-22T03:52:03.171Z,63.30
2018-12-22T03:54:29.410Z,64.66
2018-12-22T03:56:56.253Z,64.23
2018-12-22T03:59:24.919Z,64.90
2018-12-22T04:01:51.280Z,63.90
2018-12-22T04:04:17.386Z,66.07
2018-12-22T04:06:43.565Z,65.91
2018-12-22T04:09:10.366Z,66.23
2018-12-22T04:11:36.559Z,67.01
2018-12-22T04:14:02.914Z,67.94
2018-12-22T04:16:29.022Z,67.92
2018-12-22T04:18:55.206Z,68.45
2018-12-22T04:21:21.416Z,69.69
2018-12-22T04:23:47.608Z,69.89
2018-12-22T04:26:13.853Z,69.89
2018-12-22T04:28:40.056Z,70.10
2018-12-22T04:31:06.249Z,70.74
2018-12-22T04:33:32.561Z,71.56
2018-12-22T04:35:58.683Z,71.65
2018-12-22T04:38:24.804Z,72.87
2018-12-22T04:40:50.976Z,72.54
2018-12-22T04:43:17.087Z,73.04
2018-12-22T04:45:43.237Z,72.99
2018-12-22T04:48:09.310Z,73.45
2018-12-22T04:50:35.438Z,73.24
2018-12-22T04:53:01.501Z,72.52
2018-12-22T04:55:27.679Z,72.80
2018-12-22T04:57:53.772Z,73.48
2018-12-22T05:00:19.876Z,72.51
2018-12-22T05:02:45.962Z,74.11
2018-12-22T05:05:12.153Z,73.11
2018-12-22T05:07:38.281Z,73.71
2018-12-22T05:10:06.557Z,74.22
2018-12-22T05:12:32.627Z,74.11
2018-12-22T05:14:58.946Z,73.80
2018-12-22T05:17:25.137Z,73.54
2018-12-22T05:19:51.442Z,73.68
2018-12-22T05:22:17.676Z,73.56
2018-12-22T05:24:43.932Z,73.51
2018-12-22T05:27:10.061Z,74.12
2018-12-22T05:29:36.258Z,74.05
2018-12-22T05:32:02.557Z,73.43
2018-12-22T05:34:28.866Z,74.49
2018-12-22T05:36:54.986Z,74.04
2018-12-22T05:39:21.101Z,73.11
2018-12-22T05:41:47.333Z,73.82
2018-12-22T05:44:13.556Z,73.36
2018-12-22T05:46:39.861Z,74.06
2018-12-22T05:49:06.045Z,74.96
2018-12-22T05:51:32.157Z,74.41
2018-12-22T05:53:58.265Z,74.97
2018-12-22T05:56:24.493Z,74.84
2018-12-22T05:58:50.689Z,75.52
2018-12-22T06:01:16.912Z,76.12
2018-12-22T06:03:43.128Z,76.06
2018-12-22T06:06:09.426Z,77.80
2018-12-22T06:08:35.556Z,77.38
2018-12-22T06:11:01.805Z,77.29
2018-12-22T06:13:35.048Z,77.50
2018-12-22T06:16:01.388Z,78.42
2018-12-22T06:18:27.610Z,79.41
2018-12-22T06:20:53.845Z,79.29
2018-12-22T06:23:20.067Z,79.38
2018-12-22T06:25:46.523Z,79.53
2018-12-22T06:28:12.709Z,78.80
2018-12-22T06:30:38.943Z,79.42
2018-12-22T06:33:05.395Z,79.61
2018-12-22T06:35:31.490Z,80.08
2018-12-22T06:37:57.601Z,78.34
2018-12-22T06:40:23.754Z,80.02
2018-12-22T06:42:50.004Z,78.51
2018-12-22T06:45:16.091Z,79.31
2018-12-22T06:47:42.209Z,78.32
2018-12-22T06:50:08.394Z,79.19
2018-12-22T06:52:34.847Z,78.27
2018-12-22T06:55:01.044Z,78.16
2018-12-22T06:57:27.184Z,78.27
2018-12-22T06:59:53.293Z,78.44
2018-12-22T07:02:19.558Z,77.52
2018-12-22T07:04:45.677Z,77.92
2018-12-22T07:07:11.906Z,78.43
2018-12-22T07:09:38.033Z,77.72
2018-12-22T07:12:04.253Z,77.47
2018-12-22T07:14:30.662Z,77.53
2018-12-22T07:16:56.787Z,77.78
2018-12-22T07:19:23.102Z,78.33
2018-12-22T07:21:49.201Z,76.79
2018-12-22T07:24:15.392Z,77.13
2018-12-22T07:26:41.667Z,77.23
2018-12-22T07:29:07.913Z,77.29
2018-12-22T07:31:34.893Z,77.07
2018-12-22T07:34:01.966Z,77.05
2018-12-22T07:36:28.072Z,77.18
2018-12-22T07:38:56.261Z,76.64
2018-12-22T07:41:23.197Z,77.55
2018-12-22T07:43:56.501Z,77.91
2018-12-22T07:46:22.705Z,77.75
2018-12-22T07:48:48.906Z,78.62
2018-12-22T07:51:15.922Z,78.14
2018-12-22T07:53:42.029Z,78.40
2018-12-22T07:56:08.808Z,77.60
2018-12-22T07:58:35.060Z,77.93
2018-12-22T08:01:02.242Z,78.41
2018-12-22T08:03:28.417Z,77.99
2018-12-22T08:05:55.518Z,77.88
2018-12-22T08:08:23.643Z,77.58
2018-12-22T08:10:50.578Z,77.50
2018-12-22T08:13:16.698Z,76.21
2018-12-22T08:15:43.165Z,74.70
2018-12-22T08:18:10.108Z,76.17
2018-12-22T08:20:37.089Z,76.55
2018-12-22T08:23:03.282Z,75.16
2018-12-22T08:25:30.401Z,74.29
2018-12-22T08:27:57.202Z,73.49
2018-12-22T08:30:24.434Z,74.03
2018-12-22T08:32:52.127Z,74.67
2018-12-22T08:35:18.353Z,75.09
2018-12-22T08:37:44.647Z,75.39
2018-12-22T08:40:10.874Z,74.64
2018-12-22T08:42:37.217Z,74.08
2018-12-22T08:45:06.402Z,75.80
2018-12-22T08:47:32.590Z,75.83
2018-12-22T08:49:58.697Z,75.59
2018-12-22T08:52:25.677Z,76.26
2018-12-22T08:54:51.770Z,75.88
2018-12-22T08:57:17.998Z,75.20
2018-12-22T08:59:44.129Z,74.42
2018-12-22T09:02:11.285Z,73.80
2018-12-22T09:04:37.501Z,74.03
2018-12-22T09:07:03.613Z,74.59
2018-12-22T09:09:29.685Z,74.29
2018-12-22T09:11:55.981Z,74.80
2018-12-22T09:14:22.733Z,74.51
2018-12-22T09:16:49.010Z,74.57
2018-12-22T09:19:15.432Z,73.05
2018-12-22T09:21:41.659Z,73.04
2018-12-22T09:24:08.780Z,72.89
2018-12-22T09:26:34.873Z,72.02
2018-12-22T09:29:02.178Z,73.71
2018-12-22T09:31:28.943Z,72.53
2018-12-22T09:33:55.882Z,71.88
2018-12-22T09:36:23.217Z,71.56
2018-12-22T09:38:49.385Z,70.91
2018-12-22T09:41:15.586Z,71.26
2018-12-22T09:43:41.777Z,70.30
2018-12-22T09:46:07.954Z,71.76
2018-12-22T09:48:41.315Z,71.49
2018-12-22T09:51:08.386Z,70.49
2018-12-22T09:53:34.599Z,70.39
2018-12-22T09:56:00.938Z,69.79
2018-12-22T09:58:27.150Z,70.41
2018-12-22T10:00:54.212Z,70.19
2018-12-22T10:03:20.444Z,70.57
2018-12-22T10:05:49.201Z,70.20
2018-12-22T10:08:15.533Z,71.84
2018-12-22T10:10:41.817Z,70.99
2018-12-22T10:13:08.067Z,71.63
2018-12-22T10:15:37.165Z,72.28
2018-12-22T10:18:03.401Z,73.35
2018-12-22T10:20:29.700Z,73.39
2018-12-22T10:22:56.733Z,74.26
2018-12-22T10:25:23.914Z,75.80
2018-12-22T10:27:51.269Z,77.10
2018-12-22T10:30:17.878Z,76.98
2018-12-22T10:32:44.096Z,77.16
2018-12-22T10:35:16.804Z,77.83
2018-12-22T10:37:43.823Z,79.03
2018-12-22T10:40:10.051Z,78.76
2018-12-22T10:42:36.263Z,79.05
2018-12-22T10:45:05.654Z,79.03
2018-12-22T10:47:31.741Z,78.33
2018-12-22T10:49:57.857Z,78.75
2018-12-22T10:52:24.046Z,77.96
2018-12-22T10:54:50.144Z,77.51
2018-12-22T10:57:16.262Z,78.18
2018-12-22T10:59:43.614Z,79.96
2018-12-22T11:02:09.813Z,81.33
2018-12-22T11:04:36.051Z,82.42
2018-12-22T11:07:07.273Z,83.06
2018-12-22T11:09:33.422Z,83.92
2018-12-22T11:11:59.577Z,83.69
2018-12-22T11:14:25.729Z,83.79
2018-12-22T11:16:51.888Z,85.38
2018-12-22T11:19:18.007Z,84.14
2018-12-22T11:21:44.106Z,82.34
2018-12-22T11:24:10.391Z,82.37
2018-12-22T11:26:36.612Z,82.05
2018-12-22T11:29:03.102Z,81.73
2018-12-22T11:31:34.993Z,80.44
2018-12-22T11:33:57.432Z,80.67
2018-12-22T11:36:23.628Z,78.64
2018-12-22T11:38:49.757Z,78.11
2018-12-22T11:41:16.224Z,78.71
2018-12-22T11:43:42.313Z,78.47
2018-12-22T11:46:08.442Z,78.28
2018-12-22T11:48:34.849Z,77.83
2018-12-22T11:51:00.974Z,77.84
2018-12-22T11:53:27.083Z,80.91
2018-12-22T11:55:53.182Z,80.13
2018-12-22T11:58:19.278Z,81.09
2018-12-22T12:00:45.540Z,81.31
2018-12-22T12:03:11.617Z,81.62
2018-12-22T12:05:37.802Z,80.67
2018-12-22T12:08:06.935Z,82.09
2018-12-22T12:10:33.129Z,81.16
2018-12-22T12:12:59.242Z,80.46
2018-12-22T12:15:26.816Z,79.78
2018-12-22T12:18:16.573Z,79.36
2018-12-22T12:20:43.424Z,79.86
2018-12-22T12:23:10.544Z,79.70
2018-12-22T12:25:37.606Z,79.16
2018-12-22T12:28:03.987Z,79.77
2018-12-22T12:30:30.118Z,79.29
2018-12-22T12:32:56.186Z,79.62
2018-12-22T12:35:22.517Z,80.43
2018-12-22T12:37:48.705Z,80.37
2018-12-22T12:40:14.871Z,80.66
2018-12-22T12:42:41.090Z,79.92
2018-12-22T12:45:12.542Z,79.41
2018-12-22T12:47:43.653Z,79.87
2018-12-22T12:50:15.696Z,80.26
2018-12-22T12:52:41.942Z,79.32
2018-12-22T12:55:11.111Z,80.08
2018-12-22T12:57:37.305Z,79.00
2018-12-22T13:00:20.252Z,79.84
2018-12-22T13:02:46.421Z,81.24
2018-12-22T13:05:13.220Z,81.57
2018-12-22T13:07:39.450Z,80.73
2018-12-22T13:10:13.438Z,81.17
2018-12-22T13:13:02.853Z,80.95
2018-12-22T13:15:29.013Z,81.46
2018-12-22T13:17:55.106Z,80.64
2018-12-22T13:20:23.280Z,80.71
2018-12-22T13:22:49.447Z,81.24
2018-12-22T13:25:15.681Z,81.54
2018-12-22T13:27:41.923Z,79.75
2018-12-22T13:30:11.391Z,79.42
2018-12-22T13:32:38.622Z,79.85
2018-12-22T13:35:09.882Z,80.41
2018-12-22T13:37:36.293Z,80.50
2018-12-22T13:40:17.659Z,80.82
2018-12-22T13:42:43.901Z,79.35
2018-12-22T13:45:10.374Z,79.45
2018-12-22T13:47:37.682Z,78.86
2018-12-22T13:50:10.786Z,79.39
2018-12-22T13:52:37.754Z,79.70
2018-12-22T13:55:08.520Z,79.99
2018-12-22T13:57:38.824Z,79.63
2018-12-22T14:00:24.234Z,79.91
2018-12-22T14:02:50.411Z,79.90
2018-12-22T14:05:23.165Z,78.45
2018-12-22T14:07:49.373Z,78.60
2018-12-22T14:10:16.260Z,79.13
2018-12-22T14:12:42.371Z,78.27
2018-12-22T14:15:14.702Z,78.38
2018-12-22T14:17:45.810Z,77.86
2018-12-22T14:20:12.782Z,77.57
2018-12-22T14:22:39.021Z,77.59
2018-12-22T14:25:11.332Z,77.35
2018-12-22T14:27:38.297Z,77.13
2018-12-22T14:30:10.809Z,77.82
2018-12-22T14:32:36.940Z,78.44
2018-12-22T14:35:14.060Z,78.01
2018-12-22T14:37:40.370Z,78.12
2018-12-22T14:40:11.187Z,77.08
2018-12-22T14:42:37.657Z,77.05
2018-12-22T14:45:10.143Z,77.15
2018-12-22T14:47:36.491Z,76.85
2018-12-22T14:50:07.784Z,76.96
2018-12-22T14:52:33.915Z,77.77
2018-12-22T14:55:02.248Z,77.27
2018-12-22T14:57:43.889Z,77.87
2018-12-22T15:00:14.730Z,77.84
2018-12-22T15:02:41.057Z,77.57
2018-12-22T15:05:07.306Z,76.43
2018-12-22T15:07:33.429Z,76.68
2018-12-22T15:10:00.475Z,77.17
2018-12-22T15:12:27.612Z,76.76
2018-12-22T15:14:53.853Z,76.89
2018-12-22T15:17:20.004Z,76.94
2018-12-22T15:19:47.713Z,77.21
2018-12-22T15:22:14.039Z,76.77
2018-12-22T15:24:40.413Z,75.99
2018-12-22T15:27:06.548Z,75.20
2018-12-22T15:32:11.764Z,76.62
2018-12-22T15:34:38.124Z,75.92
2018-12-22T15:37:04.449Z,75.50
2018-12-22T15:39:31.350Z,75.94
2018-12-22T15:41:57.501Z,75.77
2018-12-22T15:44:23.614Z,74.00
2018-12-22T15:46:49.831Z,75.45
2018-12-22T15:49:17.603Z,74.86
2018-12-22T15:51:44.057Z,75.49
2018-12-22T15:54:14.068Z,75.22
2018-12-22T15:56:40.271Z,75.03
2018-12-22T15:59:06.478Z,75.29
2018-12-22T16:01:32.765Z,75.54
2018-12-22T16:03:58.965Z,74.23
2018-12-22T16:06:25.391Z,74.79
2018-12-22T16:08:51.788Z,74.36
2018-12-22T16:11:20.305Z,73.99
2018-12-22T16:13:46.606Z,75.96
2018-12-22T16:16:13.484Z,75.86
2018-12-22T16:18:40.265Z,76.59
2018-12-22T16:21:06.594Z,77.21
2018-12-22T16:23:33.146Z,75.91
2018-12-22T16:26:07.238Z,76.69
2018-12-22T16:28:33.793Z,76.24
2018-12-22T16:31:00.041Z,76.79
2018-12-22T16:33:27.830Z,77.11
2018-12-22T16:35:54.183Z,76.64
2018-12-22T16:38:20.515Z,75.93
2018-12-22T16:40:46.971Z,76.03
2018-12-22T16:43:13.326Z,75.89
2018-12-22T16:45:41.885Z,75.84
2018-12-22T16:48:08.199Z,75.37
2018-12-22T16:50:36.589Z,76.13
2018-12-22T16:53:02.816Z,77.12
2018-12-22T16:55:31.326Z,76.46
2018-12-22T16:58:08.235Z,75.72
2018-12-22T17:03:38.831Z,77.27
2018-12-22T17:06:07.757Z,76.35
2018-12-22T17:08:34.192Z,78.53
2018-12-22T17:11:00.548Z,78.53
2018-12-22T17:13:26.742Z,79.22
2018-12-22T17:15:54.854Z,79.02
2018-12-22T17:18:22.266Z,79.50
2018-12-22T17:20:55.623Z,79.67
2018-12-22T17:23:35.591Z,79.39
2018-12-22T17:26:02.026Z,80.56
2018-12-22T17:28:30.022Z,79.98
2018-12-22T17:30:56.387Z,79.06
2018-12-22T17:33:22.796Z,79.21
2018-12-22T17:35:49.061Z,79.03
2018-12-22T17:38:15.280Z,79.63
2018-12-22T17:40:41.481Z,78.72
2018-12-22T17:43:08.199Z,78.46
2018-12-22T17:45:34.384Z,77.98
2018-12-22T17:48:02.663Z,77.43
2018-12-22T17:50:28.847Z,77.25
2018-12-22T17:52:55.007Z,76.92
2018-12-22T17:55:21.238Z,75.77
2018-12-22T17:57:47.535Z,75.93
2018-12-22T18:00:14.438Z,76.76
2018-12-22T18:02:45.509Z,77.05
2018-12-22T18:05:11.872Z,76.92
2018-12-22T18:07:38.132Z,75.75
2018-12-22T18:10:10.006Z,76.85
2018-12-22T18:12:36.387Z,77.86
2018-12-22T18:15:17.601Z,77.75
2018-12-22T18:17:43.834Z,78.26
2018-12-22T18:20:10.145Z,78.19
2018-12-22T18:22:36.458Z,78.75
2018-12-22T18:25:08.881Z,78.90
2018-12-22T18:27:35.092Z,78.50
2018-12-22T18:30:01.293Z,77.48
2018-12-22T18:32:27.492Z,77.64
2018-12-22T18:34:53.829Z,77.81
2018-12-22T18:37:20.036Z,78.08
2018-12-22T18:39:46.148Z,77.43
2018-12-22T18:42:12.782Z,77.12
2018-12-22T18:44:40.060Z,76.55
2018-12-22T18:47:08.090Z,76.49
2018-12-22T18:49:35.238Z,76.23
2018-12-22T18:52:01.364Z,76.12
2018-12-22T18:54:28.531Z,76.17
2018-12-22T18:56:54.742Z,76.09
2018-12-22T18:59:21.363Z,75.79
2018-12-22T19:01:47.803Z,76.38
2018-12-22T19:04:14.130Z,75.66
2018-12-22T19:06:42.352Z,76.23
2018-12-22T19:09:12.972Z,76.40
2018-12-22T19:11:40.193Z,77.53
2018-12-22T19:14:07.274Z,79.15
2018-12-22T19:16:33.395Z,80.79
2018-12-22T19:19:00.147Z,80.17
2018-12-22T19:21:26.350Z,81.72
2018-12-22T19:23:53.307Z,80.78
2018-12-22T19:26:20.349Z,81.98
2018-12-22T19:28:46.698Z,82.68
2018-12-22T19:31:12.881Z,82.43
2018-12-22T19:33:38.971Z,82.33
2018-12-22T19:36:06.080Z,82.43
2018-12-22T19:38:32.361Z,83.36
2018-12-22T19:40:58.716Z,83.50
2018-12-22T19:43:24.816Z,84.15
2018-12-22T19:45:51.144Z,83.66
2018-12-22T19:48:17.250Z,83.01
2018-12-22T19:50:43.515Z,82.98
2018-12-22T19:53:09.742Z,81.95
2018-12-22T19:55:35.935Z,81.53
2018-12-22T19:58:02.145Z,81.48
2018-12-22T20:00:28.610Z,81.44
2018-12-22T20:02:54.912Z,81.78
2018-12-22T20:05:21.142Z,81.94
2018-12-22T20:07:47.560Z,81.33
2018-12-22T20:10:13.804Z,81.15
2018-12-22T20:12:40.127Z,81.03
2018-12-22T20:15:06.587Z,81.29
2018-12-22T20:17:32.872Z,80.40
2018-12-22T20:19:59.162Z,80.08
2018-12-22T20:22:25.362Z,80.45
2018-12-22T20:24:51.501Z,79.30
2018-12-22T20:27:17.961Z,79.55
2018-12-22T20:29:44.366Z,79.74
2018-12-22T20:32:11.202Z,80.00
2018-12-22T20:34:37.492Z,79.14
2018-12-22T20:37:03.652Z,79.18
2018-12-22T20:39:29.865Z,79.00
2018-12-22T20:41:56.086Z,78.96
2018-12-22T20:44:22.177Z,79.60
2018-12-22T20:46:48.392Z,79.06
2018-12-22T20:49:14.490Z,78.71
2018-12-22T20:51:40.608Z,78.24
2018-12-22T20:54:06.866Z,78.03
2018-12-22T20:56:32.941Z,77.88
2018-12-22T20:58:59.167Z,78.02
2018-12-22T21:01:25.394Z,77.51
2018-12-22T21:03:51.778Z,77.25
2018-12-22T21:06:21.391Z,76.72
2018-12-22T21:08:47.714Z,76.13
2018-12-22T21:11:14.018Z,75.18
2018-12-22T21:13:40.356Z,75.50
2018-12-22T21:16:06.517Z,75.95
2018-12-22T21:18:32.849Z,76.41
2018-12-22T21:21:00.526Z,76.42
2018-12-22T21:23:27.271Z,76.03
2018-12-22T21:25:53.467Z,75.30
2018-12-22T21:28:19.737Z,74.99
2018-12-22T21:30:45.926Z,75.29
2018-12-22T21:33:12.088Z,75.48
2018-12-22T21:35:38.298Z,76.10
2018-12-22T21:38:04.654Z,75.63
2018-12-22T21:40:30.902Z,76.99
2018-12-22T21:42:57.043Z,77.89
2018-12-22T21:45:23.302Z,77.95
2018-12-22T21:47:49.632Z,79.13
2018-12-22T21:50:22.967Z,78.79
2018-12-22T21:52:49.541Z,78.57
2018-12-22T21:55:15.872Z,78.00
2018-12-22T21:57:42.151Z,77.38
2018-12-22T22:00:08.565Z,77.23
2018-12-22T22:02:34.808Z,77.11
2018-12-22T22:05:01.161Z,77.54
2018-12-22T22:07:27.359Z,77.40
2018-12-22T22:09:53.501Z,77.49
2018-12-22T22:12:19.750Z,77.49
2018-12-22T22:14:46.065Z,77.56
2018-12-22T22:17:12.385Z,76.97
2018-12-22T22:19:38.666Z,77.37
2018-12-22T22:22:05.012Z,77.06
2018-12-22T22:24:31.125Z,76.50
2018-12-22T22:26:57.501Z,76.50
2018-12-22T22:29:23.734Z,75.14
2018-12-22T22:31:49.872Z,75.65
2018-12-22T22:34:15.967Z,74.53
2018-12-22T22:36:42.136Z,74.51
2018-12-22T22:39:08.241Z,74.46
2018-12-22T22:41:34.365Z,73.45
2018-12-22T22:44:00.597Z,73.45
2018-12-22T22:46:26.925Z,73.38
2018-12-22T22:48:53.065Z,73.06
2018-12-22T22:51:19.398Z,73.68
2018-12-22T22:53:45.525Z,73.13
2018-12-22T22:56:11.802Z,72.67
2018-12-22T22:58:38.045Z,72.36
2018-12-22T23:01:04.609Z,72.00
2018-12-22T23:03:30.833Z,72.17
2018-12-22T23:05:57.080Z,71.66
2018-12-22T23:08:23.367Z,71.86
2018-12-22T23:10:49.832Z,71.59
2018-12-22T23:13:16.029Z,71.47
2018-12-22T23:15:42.634Z,71.86
2018-12-22T23:18:08.764Z,71.81
2018-12-22T23:20:34.935Z,71.81
2018-12-22T23:23:01.117Z,71.04
2018-12-22T23:25:27.453Z,70.00
2018-12-22T23:27:53.638Z,69.51
2018-12-22T23:30:19.858Z,71.07
2018-12-22T23:32:45.979Z,71.63
2018-12-22T23:35:12.213Z,70.73
2018-12-22T23:37:38.357Z,70.32
2018-12-22T23:40:04.666Z,70.51
2018-12-22T23:42:30.792Z,70.77
2018-12-22T23:44:56.936Z,70.78
2018-12-22T23:47:23.103Z,69.66
2018-12-22T23:49:49.242Z,70.80
2018-12-22T23:52:15.433Z,70.90
2018-12-22T23:54:41.549Z,69.79
2018-12-22T23:57:07.926Z,70.85
2018-12-22T23:59:34.212Z,70.74
